sensor_id;sensor_type;location;lat;lon;timestamp;temperature;humidity
20803;DHT22;10562;-33.856;151.182;2023-04-29T00:01:22;18.80;99.90
20803;DHT22;10562;-33.856;151.182;2023-04-29T00:03:53;19.00;99.90
20803;DHT22;10562;-33.856;151.182;2023-04-29T00:06:23;19.00;99.90
20803;DHT22;10562;-33.856;151.182;2023-04-29T00:08:55;19.00;99.90
20803;DHT22;10562;-33.856;151.182;2023-04-29T00:11:26;19.00;99.90
20803;DHT22;10562;-33.856;151.182;2023-04-29T00:13:58;19.00;99.90
20803;DHT22;10562;-33.856;151.182;2023-04-29T00:16:29;19.00;99.90
20803;DHT22;10562;-33.856;151.182;2023-04-29T00:19:00;19.00;99.90
20803;DHT22;10562;-33.856;151.182;2023-04-29T00:21:35;19.00;99.90
20803;DHT22;10562;-33.856;151.182;2023-04-29T00:24:11;19.00;99.90
20803;DHT22;10562;-33.856;151.182;2023-04-29T00:26:44;19.00;99.90
20803;DHT22;10562;-33.856;151.182;2023-04-29T00:29:17;18.90;99.90
20803;DHT22;10562;-33.856;151.182;2023-04-29T00:31:48;18.80;99.90
20803;DHT22;10562;-33.856;151.182;2023-04-29T00:34:19;18.70;99.90
20803;DHT22;10562;-33.856;151.182;2023-04-29T00:36:49;18.70;99.90
20803;DHT22;10562;-33.856;151.182;2023-04-29T00:39:20;18.60;99.90
20803;DHT22;10562;-33.856;151.182;2023-04-29T00:41:51;18.50;99.90
20803;DHT22;10562;-33.856;151.182;2023-04-29T00:44:25;18.50;99.90
20803;DHT22;10562;-33.856;151.182;2023-04-29T00:46:56;18.50;99.90
20803;DHT22;10562;-33.856;151.182;2023-04-29T00:49:27;18.60;99.90
20803;DHT22;10562;-33.856;151.182;2023-04-29T00:51:59;18.70;99.90
20803;DHT22;10562;-33.856;151.182;2023-04-29T00:54:30;18.70;99.90
20803;DHT22;10562;-33.856;151.182;2023-04-29T00:57:02;18.80;99.90
20803;DHT22;10562;-33.856;151.182;2023-04-29T00:59:36;18.80;99.90
20803;DHT22;10562;-33.856;151.182;2023-04-29T01:02:07;18.80;99.90
20803;DHT22;10562;-33.856;151.182;2023-04-29T01:04:38;18.70;99.90
20803;DHT22;10562;-33.856;151.182;2023-04-29T01:07:15;18.70;99.90
20803;DHT22;10562;-33.856;151.182;2023-04-29T01:09:53;18.70;99.90
20803;DHT22;10562;-33.856;151.182;2023-04-29T01:12:33;18.80;99.90
20803;DHT22;10562;-33.856;151.182;2023-04-29T01:15:18;18.80;99.90
20803;DHT22;10562;-33.856;151.182;2023-04-29T01:17:58;18.90;99.90
20803;DHT22;10562;-33.856;151.182;2023-04-29T01:20:31;18.90;99.90
20803;DHT22;10562;-33.856;151.182;2023-04-29T01:23:02;18.90;99.90
20803;DHT22;10562;-33.856;151.182;2023-04-29T01:25:35;18.90;99.90
20803;DHT22;10562;-33.856;151.182;2023-04-29T01:28:13;19.00;99.90
20803;DHT22;10562;-33.856;151.182;2023-04-29T01:30:49;19.00;99.90
20803;DHT22;10562;-33.856;151.182;2023-04-29T01:33:26;19.00;99.90
20803;DHT22;10562;-33.856;151.182;2023-04-29T01:36:09;19.00;99.90
20803;DHT22;10562;-33.856;151.182;2023-04-29T01:38:50;19.00;99.90
20803;DHT22;10562;-33.856;151.182;2023-04-29T01:41:33;19.00;99.90
20803;DHT22;10562;-33.856;151.182;2023-04-29T01:44:06;18.90;99.90
20803;DHT22;10562;-33.856;151.182;2023-04-29T01:46:38;18.90;99.90
20803;DHT22;10562;-33.856;151.182;2023-04-29T01:49:10;18.90;99.90
20803;DHT22;10562;-33.856;151.182;2023-04-29T01:51:42;18.90;99.90
20803;DHT22;10562;-33.856;151.182;2023-04-29T01:54:12;18.90;99.90
20803;DHT22;10562;-33.856;151.182;2023-04-29T01:56:45;18.90;99.90
20803;DHT22;10562;-33.856;151.182;2023-04-29T01:59:16;18.80;99.90
20803;DHT22;10562;-33.856;151.182;2023-04-29T02:01:47;18.80;99.90
20803;DHT22;10562;-33.856;151.182;2023-04-29T02:04:18;18.60;99.90
20803;DHT22;10562;-33.856;151.182;2023-04-29T02:06:49;18.60;99.90
20803;DHT22;10562;-33.856;151.182;2023-04-29T02:09:20;18.70;99.90
20803;DHT22;10562;-33.856;151.182;2023-04-29T02:11:53;18.70;99.90
20803;DHT22;10562;-33.856;151.182;2023-04-29T02:14:23;18.60;99.90
20803;DHT22;10562;-33.856;151.182;2023-04-29T02:16:54;18.40;99.90
20803;DHT22;10562;-33.856;151.182;2023-04-29T02:19:25;18.40;99.90
20803;DHT22;10562;-33.856;151.182;2023-04-29T02:21:56;18.40;99.90
20803;DHT22;10562;-33.856;151.182;2023-04-29T02:24:26;18.60;99.90
20803;DHT22;10562;-33.856;151.182;2023-04-29T02:26:59;18.70;99.90
20803;DHT22;10562;-33.856;151.182;2023-04-29T02:29:32;18.60;99.90
20803;DHT22;10562;-33.856;151.182;2023-04-29T02:32:03;18.40;99.90
20803;DHT22;10562;-33.856;151.182;2023-04-29T02:34:34;18.30;99.90
20803;DHT22;10562;-33.856;151.182;2023-04-29T02:37:05;18.20;99.90
20803;DHT22;10562;-33.856;151.182;2023-04-29T02:39:36;18.00;99.90
20803;DHT22;10562;-33.856;151.182;2023-04-29T02:42:08;17.90;99.90
20803;DHT22;10562;-33.856;151.182;2023-04-29T02:44:40;17.90;99.90
20803;DHT22;10562;-33.856;151.182;2023-04-29T02:47:10;18.00;99.90
20803;DHT22;10562;-33.856;151.182;2023-04-29T02:49:41;18.00;99.90
20803;DHT22;10562;-33.856;151.182;2023-04-29T02:52:12;18.10;99.90
20803;DHT22;10562;-33.856;151.182;2023-04-29T02:54:43;18.20;99.90
20803;DHT22;10562;-33.856;151.182;2023-04-29T02:57:16;18.10;99.90
20803;DHT22;10562;-33.856;151.182;2023-04-29T02:59:47;18.00;99.90
20803;DHT22;10562;-33.856;151.182;2023-04-29T03:02:18;18.00;99.90
20803;DHT22;10562;-33.856;151.182;2023-04-29T03:04:52;18.00;99.90
20803;DHT22;10562;-33.856;151.182;2023-04-29T03:07:22;18.10;99.90
20803;DHT22;10562;-33.856;151.182;2023-04-29T03:09:54;18.20;99.90
20803;DHT22;10562;-33.856;151.182;2023-04-29T03:12:27;18.20;99.90
20803;DHT22;10562;-33.856;151.182;2023-04-29T03:14:58;18.30;99.90
20803;DHT22;10562;-33.856;151.182;2023-04-29T03:17:29;18.40;99.90
20803;DHT22;10562;-33.856;151.182;2023-04-29T03:20:00;18.50;99.90
20803;DHT22;10562;-33.856;151.182;2023-04-29T03:22:31;18.50;99.90
20803;DHT22;10562;-33.856;151.182;2023-04-29T03:25:02;18.50;99.90
20803;DHT22;10562;-33.856;151.182;2023-04-29T03:27:36;18.50;99.90
20803;DHT22;10562;-33.856;151.182;2023-04-29T03:30:07;18.40;99.90
20803;DHT22;10562;-33.856;151.182;2023-04-29T03:32:38;18.40;99.90
20803;DHT22;10562;-33.856;151.182;2023-04-29T03:35:09;18.50;99.90
20803;DHT22;10562;-33.856;151.182;2023-04-29T03:37:40;18.50;99.90
20803;DHT22;10562;-33.856;151.182;2023-04-29T03:40:12;18.60;99.90
20803;DHT22;10562;-33.856;151.182;2023-04-29T03:42:45;18.70;99.90
20803;DHT22;10562;-33.856;151.182;2023-04-29T03:45:16;18.80;99.90
20803;DHT22;10562;-33.856;151.182;2023-04-29T03:47:47;18.80;99.90
20803;DHT22;10562;-33.856;151.182;2023-04-29T03:50:20;18.90;99.90
20803;DHT22;10562;-33.856;151.182;2023-04-29T03:52:51;18.90;99.90
20803;DHT22;10562;-33.856;151.182;2023-04-29T03:55:22;18.90;99.90
20803;DHT22;10562;-33.856;151.182;2023-04-29T03:57:55;18.90;99.90
20803;DHT22;10562;-33.856;151.182;2023-04-29T04:00:25;19.00;99.90
20803;DHT22;10562;-33.856;151.182;2023-04-29T04:02:58;18.90;99.90
20803;DHT22;10562;-33.856;151.182;2023-04-29T04:05:29;19.00;99.90
20803;DHT22;10562;-33.856;151.182;2023-04-29T04:08:00;18.90;99.90
20803;DHT22;10562;-33.856;151.182;2023-04-29T04:10:30;18.90;99.90
20803;DHT22;10562;-33.856;151.182;2023-04-29T04:13:03;18.90;99.90
20803;DHT22;10562;-33.856;151.182;2023-04-29T04:15:34;18.90;99.90
20803;DHT22;10562;-33.856;151.182;2023-04-29T04:18:05;19.00;99.90
20803;DHT22;10562;-33.856;151.182;2023-04-29T04:20:37;18.90;99.90
20803;DHT22;10562;-33.856;151.182;2023-04-29T04:23:08;18.90;99.90
20803;DHT22;10562;-33.856;151.182;2023-04-29T04:25:44;18.80;99.90
20803;DHT22;10562;-33.856;151.182;2023-04-29T04:28:18;18.80;99.90
20803;DHT22;10562;-33.856;151.182;2023-04-29T04:30:49;18.80;99.90
20803;DHT22;10562;-33.856;151.182;2023-04-29T04:33:19;18.80;99.90
20803;DHT22;10562;-33.856;151.182;2023-04-29T04:35:51;18.80;99.90
20803;DHT22;10562;-33.856;151.182;2023-04-29T04:38:21;18.90;99.90
20803;DHT22;10562;-33.856;151.182;2023-04-29T04:40:53;18.90;99.90
20803;DHT22;10562;-33.856;151.182;2023-04-29T04:43:25;18.90;99.90
20803;DHT22;10562;-33.856;151.182;2023-04-29T04:45:56;18.90;99.90
20803;DHT22;10562;-33.856;151.182;2023-04-29T04:48:27;19.00;99.90
20803;DHT22;10562;-33.856;151.182;2023-04-29T04:51:08;19.20;99.90
20803;DHT22;10562;-33.856;151.182;2023-04-29T04:53:39;19.40;99.90
20803;DHT22;10562;-33.856;151.182;2023-04-29T04:56:13;19.50;99.90
20803;DHT22;10562;-33.856;151.182;2023-04-29T04:58:45;19.70;99.90
20803;DHT22;10562;-33.856;151.182;2023-04-29T05:01:16;19.50;99.90
20803;DHT22;10562;-33.856;151.182;2023-04-29T05:03:47;19.50;99.90
20803;DHT22;10562;-33.856;151.182;2023-04-29T05:06:18;19.60;99.90
20803;DHT22;10562;-33.856;151.182;2023-04-29T05:08:48;19.60;99.90
20803;DHT22;10562;-33.856;151.182;2023-04-29T05:11:20;19.60;99.90
20803;DHT22;10562;-33.856;151.182;2023-04-29T05:13:53;19.60;99.90
20803;DHT22;10562;-33.856;151.182;2023-04-29T05:16:23;19.60;99.90
20803;DHT22;10562;-33.856;151.182;2023-04-29T05:18:54;19.50;99.90
20803;DHT22;10562;-33.856;151.182;2023-04-29T05:21:25;19.50;99.90
20803;DHT22;10562;-33.856;151.182;2023-04-29T05:23:56;19.50;99.90
20803;DHT22;10562;-33.856;151.182;2023-04-29T05:26:26;19.50;99.90
20803;DHT22;10562;-33.856;151.182;2023-04-29T05:28:59;19.50;99.90
20803;DHT22;10562;-33.856;151.182;2023-04-29T05:31:32;19.50;99.90
20803;DHT22;10562;-33.856;151.182;2023-04-29T05:34:03;19.50;99.90
20803;DHT22;10562;-33.856;151.182;2023-04-29T05:36:35;19.50;99.90
20803;DHT22;10562;-33.856;151.182;2023-04-29T05:39:06;19.50;99.90
20803;DHT22;10562;-33.856;151.182;2023-04-29T05:41:37;19.50;99.90
20803;DHT22;10562;-33.856;151.182;2023-04-29T05:44:10;19.40;99.90
20803;DHT22;10562;-33.856;151.182;2023-04-29T05:46:41;19.40;99.90
20803;DHT22;10562;-33.856;151.182;2023-04-29T05:49:12;19.30;99.90
20803;DHT22;10562;-33.856;151.182;2023-04-29T05:51:43;19.30;99.90
20803;DHT22;10562;-33.856;151.182;2023-04-29T05:54:13;19.20;99.90
20803;DHT22;10562;-33.856;151.182;2023-04-29T05:56:44;19.10;99.90
20803;DHT22;10562;-33.856;151.182;2023-04-29T05:59:17;19.10;99.90
20803;DHT22;10562;-33.856;151.182;2023-04-29T06:01:47;19.20;99.90
20803;DHT22;10562;-33.856;151.182;2023-04-29T06:04:18;19.20;99.90
20803;DHT22;10562;-33.856;151.182;2023-04-29T06:06:49;19.30;99.90
20803;DHT22;10562;-33.856;151.182;2023-04-29T06:09:20;19.20;99.90
20803;DHT22;10562;-33.856;151.182;2023-04-29T06:11:52;19.30;99.90
20803;DHT22;10562;-33.856;151.182;2023-04-29T06:14:25;19.30;99.90
20803;DHT22;10562;-33.856;151.182;2023-04-29T06:16:56;19.30;99.90
20803;DHT22;10562;-33.856;151.182;2023-04-29T06:19:26;19.30;99.90
20803;DHT22;10562;-33.856;151.182;2023-04-29T06:21:59;19.30;99.90
20803;DHT22;10562;-33.856;151.182;2023-04-29T06:24:30;19.30;99.90
20803;DHT22;10562;-33.856;151.182;2023-04-29T06:27:00;19.20;99.90
20803;DHT22;10562;-33.856;151.182;2023-04-29T06:29:34;19.10;99.90
20803;DHT22;10562;-33.856;151.182;2023-04-29T06:32:05;19.00;99.90
20803;DHT22;10562;-33.856;151.182;2023-04-29T06:34:36;18.80;99.90
20803;DHT22;10562;-33.856;151.182;2023-04-29T06:37:09;18.80;99.90
20803;DHT22;10562;-33.856;151.182;2023-04-29T06:39:40;18.70;99.90
20803;DHT22;10562;-33.856;151.182;2023-04-29T06:42:10;18.60;99.90
20803;DHT22;10562;-33.856;151.182;2023-04-29T06:44:44;18.50;99.90
20803;DHT22;10562;-33.856;151.182;2023-04-29T06:47:15;18.50;99.90
20803;DHT22;10562;-33.856;151.182;2023-04-29T06:49:47;18.50;99.90
20803;DHT22;10562;-33.856;151.182;2023-04-29T06:52:17;18.50;99.90
20803;DHT22;10562;-33.856;151.182;2023-04-29T06:54:48;18.40;99.90
20803;DHT22;10562;-33.856;151.182;2023-04-29T06:57:19;18.40;99.90
20803;DHT22;10562;-33.856;151.182;2023-04-29T06:59:52;18.40;99.90
20803;DHT22;10562;-33.856;151.182;2023-04-29T07:02:22;18.50;99.90
20803;DHT22;10562;-33.856;151.182;2023-04-29T07:04:53;18.50;99.90
20803;DHT22;10562;-33.856;151.182;2023-04-29T07:07:24;18.60;99.90
20803;DHT22;10562;-33.856;151.182;2023-04-29T07:09:55;18.70;99.90
20803;DHT22;10562;-33.856;151.182;2023-04-29T07:12:26;18.70;99.90
20803;DHT22;10562;-33.856;151.182;2023-04-29T07:14:59;18.60;99.90
20803;DHT22;10562;-33.856;151.182;2023-04-29T07:17:30;18.60;99.90
20803;DHT22;10562;-33.856;151.182;2023-04-29T07:20:01;18.50;99.90
20803;DHT22;10562;-33.856;151.182;2023-04-29T07:22:32;18.40;99.90
20803;DHT22;10562;-33.856;151.182;2023-04-29T07:25:03;18.30;99.90
20803;DHT22;10562;-33.856;151.182;2023-04-29T07:27:34;18.30;99.90
20803;DHT22;10562;-33.856;151.182;2023-04-29T07:30:08;18.20;99.90
20803;DHT22;10562;-33.856;151.182;2023-04-29T07:32:38;18.30;99.90
20803;DHT22;10562;-33.856;151.182;2023-04-29T07:35:09;18.20;99.90
20803;DHT22;10562;-33.856;151.182;2023-04-29T07:37:40;18.20;99.90
20803;DHT22;10562;-33.856;151.182;2023-04-29T07:40:12;18.20;99.90
20803;DHT22;10562;-33.856;151.182;2023-04-29T07:42:43;18.20;99.90
20803;DHT22;10562;-33.856;151.182;2023-04-29T07:45:16;18.20;99.90
20803;DHT22;10562;-33.856;151.182;2023-04-29T07:47:47;18.20;99.90
20803;DHT22;10562;-33.856;151.182;2023-04-29T07:50:18;18.20;99.90
20803;DHT22;10562;-33.856;151.182;2023-04-29T07:52:49;18.10;99.90
20803;DHT22;10562;-33.856;151.182;2023-04-29T07:55:21;18.00;99.90
20803;DHT22;10562;-33.856;151.182;2023-04-29T07:57:54;18.00;99.90
20803;DHT22;10562;-33.856;151.182;2023-04-29T08:00:26;18.00;99.90
20803;DHT22;10562;-33.856;151.182;2023-04-29T08:02:58;17.90;99.90
20803;DHT22;10562;-33.856;151.182;2023-04-29T08:05:29;17.80;99.90
20803;DHT22;10562;-33.856;151.182;2023-04-29T08:07:59;17.90;99.90
20803;DHT22;10562;-33.856;151.182;2023-04-29T08:10:30;17.80;99.90
20803;DHT22;10562;-33.856;151.182;2023-04-29T08:13:04;17.80;99.90
20803;DHT22;10562;-33.856;151.182;2023-04-29T08:15:37;17.80;99.90
20803;DHT22;10562;-33.856;151.182;2023-04-29T08:18:07;17.80;99.90
20803;DHT22;10562;-33.856;151.182;2023-04-29T08:20:38;17.80;99.90
20803;DHT22;10562;-33.856;151.182;2023-04-29T08:23:10;17.80;99.90
20803;DHT22;10562;-33.856;151.182;2023-04-29T08:25:44;17.80;99.90
20803;DHT22;10562;-33.856;151.182;2023-04-29T08:28:18;17.80;99.90
20803;DHT22;10562;-33.856;151.182;2023-04-29T08:30:51;17.70;99.90
20803;DHT22;10562;-33.856;151.182;2023-04-29T08:33:22;17.80;99.90
20803;DHT22;10562;-33.856;151.182;2023-04-29T08:35:58;17.80;99.90
20803;DHT22;10562;-33.856;151.182;2023-04-29T08:38:30;17.90;99.90
20803;DHT22;10562;-33.856;151.182;2023-04-29T08:41:01;17.90;99.90
20803;DHT22;10562;-33.856;151.182;2023-04-29T08:43:35;17.80;99.90
20803;DHT22;10562;-33.856;151.182;2023-04-29T08:46:10;17.80;99.90
20803;DHT22;10562;-33.856;151.182;2023-04-29T08:48:41;17.80;99.90
20803;DHT22;10562;-33.856;151.182;2023-04-29T08:51:12;17.80;99.90
20803;DHT22;10562;-33.856;151.182;2023-04-29T08:53:43;17.70;99.90
20803;DHT22;10562;-33.856;151.182;2023-04-29T08:56:17;17.70;99.90
20803;DHT22;10562;-33.856;151.182;2023-04-29T08:58:50;17.60;99.90
20803;DHT22;10562;-33.856;151.182;2023-04-29T09:01:24;17.60;99.90
20803;DHT22;10562;-33.856;151.182;2023-04-29T09:04:07;17.60;99.90
20803;DHT22;10562;-33.856;151.182;2023-04-29T09:06:39;17.60;99.90
20803;DHT22;10562;-33.856;151.182;2023-04-29T09:09:11;17.60;99.90
20803;DHT22;10562;-33.856;151.182;2023-04-29T09:11:42;17.60;99.90
20803;DHT22;10562;-33.856;151.182;2023-04-29T09:14:14;17.60;99.90
20803;DHT22;10562;-33.856;151.182;2023-04-29T09:16:49;17.60;99.90
20803;DHT22;10562;-33.856;151.182;2023-04-29T09:19:30;17.60;99.90
20803;DHT22;10562;-33.856;151.182;2023-04-29T09:22:02;17.60;99.90
20803;DHT22;10562;-33.856;151.182;2023-04-29T09:24:34;17.60;99.90
20803;DHT22;10562;-33.856;151.182;2023-04-29T09:27:05;17.70;99.90
20803;DHT22;10562;-33.856;151.182;2023-04-29T09:29:35;17.70;99.90
20803;DHT22;10562;-33.856;151.182;2023-04-29T09:32:24;17.80;99.90
20803;DHT22;10562;-33.856;151.182;2023-04-29T09:34:55;17.80;99.90
20803;DHT22;10562;-33.856;151.182;2023-04-29T09:37:26;17.90;99.90
20803;DHT22;10562;-33.856;151.182;2023-04-29T09:39:57;17.80;99.90
20803;DHT22;10562;-33.856;151.182;2023-04-29T09:42:29;17.80;99.90
20803;DHT22;10562;-33.856;151.182;2023-04-29T09:45:12;17.80;99.90
20803;DHT22;10562;-33.856;151.182;2023-04-29T09:47:44;17.80;99.90
20803;DHT22;10562;-33.856;151.182;2023-04-29T09:50:15;17.80;99.90
20803;DHT22;10562;-33.856;151.182;2023-04-29T09:52:46;17.70;99.90
20803;DHT22;10562;-33.856;151.182;2023-04-29T09:55:17;17.70;99.90
20803;DHT22;10562;-33.856;151.182;2023-04-29T09:57:48;17.70;99.90
20803;DHT22;10562;-33.856;151.182;2023-04-29T10:00:19;17.70;99.90
20803;DHT22;10562;-33.856;151.182;2023-04-29T10:02:54;17.70;99.90
20803;DHT22;10562;-33.856;151.182;2023-04-29T10:05:28;17.70;99.90
20803;DHT22;10562;-33.856;151.182;2023-04-29T10:07:59;17.60;99.90
20803;DHT22;10562;-33.856;151.182;2023-04-29T10:10:31;17.60;99.90
20803;DHT22;10562;-33.856;151.182;2023-04-29T10:13:04;17.60;99.90
20803;DHT22;10562;-33.856;151.182;2023-04-29T10:15:41;17.60;99.90
20803;DHT22;10562;-33.856;151.182;2023-04-29T10:18:21;17.60;99.90
20803;DHT22;10562;-33.856;151.182;2023-04-29T10:20:57;17.70;99.90
20803;DHT22;10562;-33.856;151.182;2023-04-29T10:23:30;17.60;99.90
20803;DHT22;10562;-33.856;151.182;2023-04-29T10:26:03;17.60;99.90
20803;DHT22;10562;-33.856;151.182;2023-04-29T10:28:37;17.60;99.90
20803;DHT22;10562;-33.856;151.182;2023-04-29T10:31:09;17.60;99.90
20803;DHT22;10562;-33.856;151.182;2023-04-29T10:33:44;17.60;99.90
20803;DHT22;10562;-33.856;151.182;2023-04-29T10:36:15;17.50;99.90
20803;DHT22;10562;-33.856;151.182;2023-04-29T10:38:49;17.50;99.90
20803;DHT22;10562;-33.856;151.182;2023-04-29T10:41:22;17.50;99.90
20803;DHT22;10562;-33.856;151.182;2023-04-29T10:43:56;17.50;99.90
20803;DHT22;10562;-33.856;151.182;2023-04-29T10:46:29;17.40;99.90
20803;DHT22;10562;-33.856;151.182;2023-04-29T10:49:04;17.40;99.90
20803;DHT22;10562;-33.856;151.182;2023-04-29T10:51:40;17.40;99.90
20803;DHT22;10562;-33.856;151.182;2023-04-29T10:54:13;17.30;99.90
20803;DHT22;10562;-33.856;151.182;2023-04-29T10:56:48;17.40;99.90
20803;DHT22;10562;-33.856;151.182;2023-04-29T10:59:22;17.40;99.90
20803;DHT22;10562;-33.856;151.182;2023-04-29T11:02:13;17.40;99.90
20803;DHT22;10562;-33.856;151.182;2023-04-29T11:05:10;17.40;99.90
20803;DHT22;10562;-33.856;151.182;2023-04-29T11:07:42;17.40;99.90
20803;DHT22;10562;-33.856;151.182;2023-04-29T11:10:15;17.40;99.90
20803;DHT22;10562;-33.856;151.182;2023-04-29T11:12:47;17.40;99.90
20803;DHT22;10562;-33.856;151.182;2023-04-29T11:15:19;17.40;99.90
20803;DHT22;10562;-33.856;151.182;2023-04-29T11:17:51;17.40;99.90
20803;DHT22;10562;-33.856;151.182;2023-04-29T11:20:25;17.40;99.90
20803;DHT22;10562;-33.856;151.182;2023-04-29T11:22:56;17.40;99.90
20803;DHT22;10562;-33.856;151.182;2023-04-29T11:25:29;17.30;99.90
20803;DHT22;10562;-33.856;151.182;2023-04-29T11:28:00;17.30;99.90
20803;DHT22;10562;-33.856;151.182;2023-04-29T11:30:33;17.30;99.90
20803;DHT22;10562;-33.856;151.182;2023-04-29T11:33:07;17.30;99.90
20803;DHT22;10562;-33.856;151.182;2023-04-29T11:35:42;17.30;99.90
20803;DHT22;10562;-33.856;151.182;2023-04-29T11:38:14;17.30;99.90
20803;DHT22;10562;-33.856;151.182;2023-04-29T11:40:49;17.20;99.90
20803;DHT22;10562;-33.856;151.182;2023-04-29T11:43:21;17.20;99.90
20803;DHT22;10562;-33.856;151.182;2023-04-29T11:45:53;17.20;99.90
20803;DHT22;10562;-33.856;151.182;2023-04-29T11:48:25;17.30;99.90
20803;DHT22;10562;-33.856;151.182;2023-04-29T11:51:00;17.30;99.90
20803;DHT22;10562;-33.856;151.182;2023-04-29T11:53:31;17.30;99.90
20803;DHT22;10562;-33.856;151.182;2023-04-29T11:56:03;17.30;99.90
20803;DHT22;10562;-33.856;151.182;2023-04-29T11:58:35;17.20;99.90
20803;DHT22;10562;-33.856;151.182;2023-04-29T12:01:06;17.20;99.90
20803;DHT22;10562;-33.856;151.182;2023-04-29T12:03:38;17.20;99.90
20803;DHT22;10562;-33.856;151.182;2023-04-29T12:06:14;17.20;99.90
20803;DHT22;10562;-33.856;151.182;2023-04-29T12:08:47;17.20;99.90
20803;DHT22;10562;-33.856;151.182;2023-04-29T12:11:18;17.20;99.90
20803;DHT22;10562;-33.856;151.182;2023-04-29T12:13:51;17.20;99.90
20803;DHT22;10562;-33.856;151.182;2023-04-29T12:16:23;17.10;99.90
20803;DHT22;10562;-33.856;151.182;2023-04-29T12:18:56;17.20;99.90
20803;DHT22;10562;-33.856;151.182;2023-04-29T12:21:30;17.20;99.90
20803;DHT22;10562;-33.856;151.182;2023-04-29T12:24:02;17.20;99.90
20803;DHT22;10562;-33.856;151.182;2023-04-29T12:26:33;17.20;99.90
20803;DHT22;10562;-33.856;151.182;2023-04-29T12:29:08;17.10;99.90
20803;DHT22;10562;-33.856;151.182;2023-04-29T12:31:40;17.10;99.90
20803;DHT22;10562;-33.856;151.182;2023-04-29T12:34:11;17.10;99.90
20803;DHT22;10562;-33.856;151.182;2023-04-29T12:36:46;17.00;99.90
20803;DHT22;10562;-33.856;151.182;2023-04-29T12:39:17;16.90;99.90
20803;DHT22;10562;-33.856;151.182;2023-04-29T12:41:53;16.60;99.90
20803;DHT22;10562;-33.856;151.182;2023-04-29T12:44:25;16.60;99.90
20803;DHT22;10562;-33.856;151.182;2023-04-29T12:47:07;16.50;99.90
20803;DHT22;10562;-33.856;151.182;2023-04-29T12:49:42;16.40;99.90
20803;DHT22;10562;-33.856;151.182;2023-04-29T12:52:16;16.40;99.90
20803;DHT22;10562;-33.856;151.182;2023-04-29T12:54:48;16.40;99.90
20803;DHT22;10562;-33.856;151.182;2023-04-29T12:57:20;16.30;99.90
20803;DHT22;10562;-33.856;151.182;2023-04-29T12:59:52;16.20;99.90
20803;DHT22;10562;-33.856;151.182;2023-04-29T13:02:24;16.20;99.90
20803;DHT22;10562;-33.856;151.182;2023-04-29T13:04:55;16.10;99.90
20803;DHT22;10562;-33.856;151.182;2023-04-29T13:07:29;16.00;99.90
20803;DHT22;10562;-33.856;151.182;2023-04-29T13:10:01;16.00;99.90
20803;DHT22;10562;-33.856;151.182;2023-04-29T13:12:33;15.90;99.90
20803;DHT22;10562;-33.856;151.182;2023-04-29T13:15:05;15.90;99.90
20803;DHT22;10562;-33.856;151.182;2023-04-29T13:17:38;15.90;99.90
20803;DHT22;10562;-33.856;151.182;2023-04-29T13:20:10;15.70;99.90
20803;DHT22;10562;-33.856;151.182;2023-04-29T13:22:44;15.60;99.90
20803;DHT22;10562;-33.856;151.182;2023-04-29T13:25:16;15.60;99.90
20803;DHT22;10562;-33.856;151.182;2023-04-29T13:27:47;15.40;99.90
20803;DHT22;10562;-33.856;151.182;2023-04-29T13:30:19;15.50;99.90
20803;DHT22;10562;-33.856;151.182;2023-04-29T13:32:50;15.40;99.90
20803;DHT22;10562;-33.856;151.182;2023-04-29T13:35:22;15.40;99.90
20803;DHT22;10562;-33.856;151.182;2023-04-29T13:37:55;15.40;99.90
20803;DHT22;10562;-33.856;151.182;2023-04-29T13:40:28;15.40;99.90
20803;DHT22;10562;-33.856;151.182;2023-04-29T13:42:59;15.40;99.90
20803;DHT22;10562;-33.856;151.182;2023-04-29T13:45:31;15.40;99.90
20803;DHT22;10562;-33.856;151.182;2023-04-29T13:48:03;15.40;99.90
20803;DHT22;10562;-33.856;151.182;2023-04-29T13:50:35;15.40;99.90
20803;DHT22;10562;-33.856;151.182;2023-04-29T13:53:10;15.40;99.90
20803;DHT22;10562;-33.856;151.182;2023-04-29T13:55:42;15.40;99.90
20803;DHT22;10562;-33.856;151.182;2023-04-29T13:58:13;15.40;99.90
20803;DHT22;10562;-33.856;151.182;2023-04-29T14:00:45;15.40;99.90
20803;DHT22;10562;-33.856;151.182;2023-04-29T14:03:16;15.40;99.90
20803;DHT22;10562;-33.856;151.182;2023-04-29T14:05:48;15.30;99.90
20803;DHT22;10562;-33.856;151.182;2023-04-29T14:08:22;15.30;99.90
20803;DHT22;10562;-33.856;151.182;2023-04-29T14:10:54;15.30;99.90
20803;DHT22;10562;-33.856;151.182;2023-04-29T14:13:25;15.20;99.90
20803;DHT22;10562;-33.856;151.182;2023-04-29T14:15:56;15.10;99.90
20803;DHT22;10562;-33.856;151.182;2023-04-29T14:18:30;15.10;99.90
20803;DHT22;10562;-33.856;151.182;2023-04-29T14:21:01;15.10;99.90
20803;DHT22;10562;-33.856;151.182;2023-04-29T14:23:35;15.20;99.90
20803;DHT22;10562;-33.856;151.182;2023-04-29T14:26:07;15.10;99.90
20803;DHT22;10562;-33.856;151.182;2023-04-29T14:28:38;15.20;99.90
20803;DHT22;10562;-33.856;151.182;2023-04-29T14:31:10;15.20;99.90
20803;DHT22;10562;-33.856;151.182;2023-04-29T14:33:42;15.10;99.90
20803;DHT22;10562;-33.856;151.182;2023-04-29T14:36:14;15.10;99.90
20803;DHT22;10562;-33.856;151.182;2023-04-29T14:38:47;15.10;99.90
20803;DHT22;10562;-33.856;151.182;2023-04-29T14:41:19;15.20;99.90
20803;DHT22;10562;-33.856;151.182;2023-04-29T14:43:51;15.30;99.90
20803;DHT22;10562;-33.856;151.182;2023-04-29T14:46:23;15.20;99.90
20803;DHT22;10562;-33.856;151.182;2023-04-29T14:48:56;15.10;99.90
20803;DHT22;10562;-33.856;151.182;2023-04-29T14:51:28;15.10;99.90
20803;DHT22;10562;-33.856;151.182;2023-04-29T14:54:01;15.00;99.90
20803;DHT22;10562;-33.856;151.182;2023-04-29T14:56:32;15.00;99.90
20803;DHT22;10562;-33.856;151.182;2023-04-29T14:59:05;15.00;99.90
20803;DHT22;10562;-33.856;151.182;2023-04-29T15:01:36;15.00;99.90
20803;DHT22;10562;-33.856;151.182;2023-04-29T15:04:08;15.00;99.90
20803;DHT22;10562;-33.856;151.182;2023-04-29T15:06:40;15.10;99.90
20803;DHT22;10562;-33.856;151.182;2023-04-29T15:09:13;15.10;99.90
20803;DHT22;10562;-33.856;151.182;2023-04-29T15:11:45;15.10;99.90
20803;DHT22;10562;-33.856;151.182;2023-04-29T15:14:17;15.00;99.90
20803;DHT22;10562;-33.856;151.182;2023-04-29T15:16:49;15.10;99.90
20803;DHT22;10562;-33.856;151.182;2023-04-29T15:19:20;15.10;99.90